sensor_id;sensor_type;location;lat;lon;timestamp;P1;P2;P0
63969;PMS5003;50156;37.772;-122.432;2022-10-20T00:01:20;9;9;
63969;PMS5003;50156;37.772;-122.432;2022-10-20T00:03:52;9;9;
63969;PMS5003;50156;37.772;-122.432;2022-10-20T00:06:22;11;10;
63969;PMS5003;50156;37.772;-122.432;2022-10-20T00:08:52;14;11;
63969;PMS5003;50156;37.772;-122.432;2022-10-20T00:11:21;16;15;
63969;PMS5003;50156;37.772;-122.432;2022-10-20T00:13:52;12;12;
63969;PMS5003;50156;37.772;-122.432;2022-10-20T00:16:22;13;12;
63969;PMS5003;50156;37.772;-122.432;2022-10-20T00:18:53;10;10;
63969;PMS5003;50156;37.772;-122.432;2022-10-20T00:21:23;16;14;
63969;PMS5003;50156;37.772;-122.432;2022-10-20T00:23:53;11;10;
63969;PMS5003;50156;37.772;-122.432;2022-10-20T00:26:23;9;9;
63969;PMS5003;50156;37.772;-122.432;2022-10-20T00:28:53;10;10;
63969;PMS5003;50156;37.772;-122.432;2022-10-20T00:31:22;13;10;
63969;PMS5003;50156;37.772;-122.432;2022-10-20T00:33:52;10;10;
63969;PMS5003;50156;37.772;-122.432;2022-10-20T00:36:21;14;11;
63969;PMS5003;50156;37.772;-122.432;2022-10-20T00:38:50;13;12;
63969;PMS5003;50156;37.772;-122.432;2022-10-20T00:41:23;10;10;
63969;PMS5003;50156;37.772;-122.432;2022-10-20T00:43:52;11;10;
63969;PMS5003;50156;37.772;-122.432;2022-10-20T00:46:23;12;12;
63969;PMS5003;50156;37.772;-122.432;2022-10-20T00:48:55;9;9;
63969;PMS5003;50156;37.772;-122.432;2022-10-20T00:51:28;18;13;
63969;PMS5003;50156;37.772;-122.432;2022-10-20T00:54:01;8;7;
63969;PMS5003;50156;37.772;-122.432;2022-10-20T00:56:34;13;11;
63969;PMS5003;50156;37.772;-122.432;2022-10-20T00:59:06;10;10;
63969;PMS5003;50156;37.772;-122.432;2022-10-20T01:01:36;10;9;
63969;PMS5003;50156;37.772;-122.432;2022-10-20T01:04:06;9;9;
63969;PMS5003;50156;37.772;-122.432;2022-10-20T01:06:35;8;7;
63969;PMS5003;50156;37.772;-122.432;2022-10-20T01:09:04;8;8;
63969;PMS5003;50156;37.772;-122.432;2022-10-20T01:11:34;11;8;
63969;PMS5003;50156;37.772;-122.432;2022-10-20T01:14:14;7;7;
63969;PMS5003;50156;37.772;-122.432;2022-10-20T01:16:54;12;12;
63969;PMS5003;50156;37.772;-122.432;2022-10-20T01:19:36;8;8;
63969;PMS5003;50156;37.772;-122.432;2022-10-20T01:22:32;9;9;
63969;PMS5003;50156;37.772;-122.432;2022-10-20T01:25:16;6;6;
63969;PMS5003;50156;37.772;-122.432;2022-10-20T01:27:52;9;9;
63969;PMS5003;50156;37.772;-122.432;2022-10-20T01:30:25;10;9;
63969;PMS5003;50156;37.772;-122.432;2022-10-20T01:32:59;10;9;
63969;PMS5003;50156;37.772;-122.432;2022-10-20T01:35:42;9;9;
63969;PMS5003;50156;37.772;-122.432;2022-10-20T01:38:23;10;7;
63969;PMS5003;50156;37.772;-122.432;2022-10-20T01:40:59;11;9;
63969;PMS5003;50156;37.772;-122.432;2022-10-20T01:43:36;10;9;
63969;PMS5003;50156;37.772;-122.432;2022-10-20T01:46:08;11;11;
63969;PMS5003;50156;37.772;-122.432;2022-10-20T01:48:42;11;10;
63969;PMS5003;50156;37.772;-122.432;2022-10-20T01:51:12;10;10;
63969;PMS5003;50156;37.772;-122.432;2022-10-20T01:53:41;11;11;
63969;PMS5003;50156;37.772;-122.432;2022-10-20T01:56:12;13;11;
63969;PMS5003;50156;37.772;-122.432;2022-10-20T01:59:25;12;11;
63969;PMS5003;50156;37.772;-122.432;2022-10-20T02:02:17;10;10;
63969;PMS5003;50156;37.772;-122.432;2022-10-20T02:05:04;12;11;
63969;PMS5003;50156;37.772;-122.432;2022-10-20T02:07:43;10;10;
63969;PMS5003;50156;37.772;-122.432;2022-10-20T02:10:13;14;14;
63969;PMS5003;50156;37.772;-122.432;2022-10-20T02:12:47;10;10;
63969;PMS5003;50156;37.772;-122.432;2022-10-20T02:15:22;13;13;
63969;PMS5003;50156;37.772;-122.432;2022-10-20T02:17:54;16;14;
63969;PMS5003;50156;37.772;-122.432;2022-10-20T02:20:26;10;9;
63969;PMS5003;50156;37.772;-122.432;2022-10-20T02:22:57;14;11;
63969;PMS5003;50156;37.772;-122.432;2022-10-20T02:25:29;13;13;
63969;PMS5003;50156;37.772;-122.432;2022-10-20T02:27:59;15;10;
63969;PMS5003;50156;37.772;-122.432;2022-10-20T02:30:30;13;12;
63969;PMS5003;50156;37.772;-122.432;2022-10-20T02:32:59;16;16;
63969;PMS5003;50156;37.772;-122.432;2022-10-20T02:35:29;12;12;
63969;PMS5003;50156;37.772;-122.432;2022-10-20T02:37:59;17;16;
63969;PMS5003;50156;37.772;-122.432;2022-10-20T02:40:29;17;17;
63969;PMS5003;50156;37.772;-122.432;2022-10-20T02:42:57;13;13;
63969;PMS5003;50156;37.772;-122.432;2022-10-20T02:45:26;15;12;
63969;PMS5003;50156;37.772;-122.432;2022-10-20T02:47:55;19;14;
63969;PMS5003;50156;37.772;-122.432;2022-10-20T02:50:23;18;17;
63969;PMS5003;50156;37.772;-122.432;2022-10-20T02:52:52;13;11;
63969;PMS5003;50156;37.772;-122.432;2022-10-20T02:55:20;10;10;
63969;PMS5003;50156;37.772;-122.432;2022-10-20T02:57:48;16;13;
63969;PMS5003;50156;37.772;-122.432;2022-10-20T03:00:17;16;13;
63969;PMS5003;50156;37.772;-122.432;2022-10-20T03:02:45;14;13;
63969;PMS5003;50156;37.772;-122.432;2022-10-20T03:05:14;15;13;
63969;PMS5003;50156;37.772;-122.432;2022-10-20T03:07:42;16;14;
63969;PMS5003;50156;37.772;-122.432;2022-10-20T03:10:11;15;15;
63969;PMS5003;50156;37.772;-122.432;2022-10-20T03:12:40;12;10;
63969;PMS5003;50156;37.772;-122.432;2022-10-20T03:15:10;15;13;
63969;PMS5003;50156;37.772;-122.432;2022-10-20T03:17:40;17;16;
63969;PMS5003;50156;37.772;-122.432;2022-10-20T03:20:09;16;14;
63969;PMS5003;50156;37.772;-122.432;2022-10-20T03:22:37;19;16;
63969;PMS5003;50156;37.772;-122.432;2022-10-20T03:25:06;12;12;
63969;PMS5003;50156;37.772;-122.432;2022-10-20T03:27:35;13;13;
63969;PMS5003;50156;37.772;-122.432;2022-10-20T03:30:04;17;14;
63969;PMS5003;50156;37.772;-122.432;2022-10-20T03:32:34;18;14;
63969;PMS5003;50156;37.772;-122.432;2022-10-20T03:35:03;14;14;
63969;PMS5003;50156;37.772;-122.432;2022-10-20T03:37:32;20;16;
63969;PMS5003;50156;37.772;-122.432;2022-10-20T03:40:01;11;10;
63969;PMS5003;50156;37.772;-122.432;2022-10-20T03:42:30;12;12;
63969;PMS5003;50156;37.772;-122.432;2022-10-20T03:44:58;16;15;
63969;PMS5003;50156;37.772;-122.432;2022-10-20T03:47:27;14;13;
63969;PMS5003;50156;37.772;-122.432;2022-10-20T03:49:55;12;11;
63969;PMS5003;50156;37.772;-122.432;2022-10-20T03:52:24;15;14;
63969;PMS5003;50156;37.772;-122.432;2022-10-20T03:54:52;14;13;
63969;PMS5003;50156;37.772;-122.432;2022-10-20T03:57:21;15;15;
63969;PMS5003;50156;37.772;-122.432;2022-10-20T03:59:50;13;12;
63969;PMS5003;50156;37.772;-122.432;2022-10-20T04:02:22;10;10;
63969;PMS5003;50156;37.772;-122.432;2022-10-20T04:04:59;12;11;
63969;PMS5003;50156;37.772;-122.432;2022-10-20T04:07:28;14;14;
63969;PMS5003;50156;37.772;-122.432;2022-10-20T04:09:57;15;14;
63969;PMS5003;50156;37.772;-122.432;2022-10-20T04:12:26;12;12;
63969;PMS5003;50156;37.772;-122.432;2022-10-20T04:14:55;18;16;
63969;PMS5003;50156;37.772;-122.432;2022-10-20T04:17:23;13;12;
63969;PMS5003;50156;37.772;-122.432;2022-10-20T04:19:52;11;11;
63969;PMS5003;50156;37.772;-122.432;2022-10-20T04:22:21;12;11;
63969;PMS5003;50156;37.772;-122.432;2022-10-20T04:24:50;12;11;
63969;PMS5003;50156;37.772;-122.432;2022-10-20T04:27:18;10;10;
63969;PMS5003;50156;37.772;-122.432;2022-10-20T04:29:47;13;9;
63969;PMS5003;50156;37.772;-122.432;2022-10-20T04:32:16;14;12;
63969;PMS5003;50156;37.772;-122.432;2022-10-20T04:34:44;17;15;
63969;PMS5003;50156;37.772;-122.432;2022-10-20T04:37:13;12;12;
63969;PMS5003;50156;37.772;-122.432;2022-10-20T04:39:41;14;14;
63969;PMS5003;50156;37.772;-122.432;2022-10-20T04:42:10;17;14;
63969;PMS5003;50156;37.772;-122.432;2022-10-20T04:44:39;13;13;
63969;PMS5003;50156;37.772;-122.432;2022-10-20T04:47:08;14;13;
63969;PMS5003;50156;37.772;-122.432;2022-10-20T04:49:38;19;17;
63969;PMS5003;50156;37.772;-122.432;2022-10-20T04:52:07;16;14;
63969;PMS5003;50156;37.772;-122.432;2022-10-20T04:54:36;15;15;
63969;PMS5003;50156;37.772;-122.432;2022-10-20T04:57:06;18;18;
63969;PMS5003;50156;37.772;-122.432;2022-10-20T04:59:34;18;15;
63969;PMS5003;50156;37.772;-122.432;2022-10-20T05:02:03;19;15;
63969;PMS5003;50156;37.772;-122.432;2022-10-20T05:04:32;18;15;
63969;PMS5003;50156;37.772;-122.432;2022-10-20T05:07:01;13;13;
63969;PMS5003;50156;37.772;-122.432;2022-10-20T05:09:30;24;24;
63969;PMS5003;50156;37.772;-122.432;2022-10-20T05:11:59;16;15;
63969;PMS5003;50156;37.772;-122.432;2022-10-20T05:14:28;16;16;
63969;PMS5003;50156;37.772;-122.432;2022-10-20T05:16:56;25;19;
63969;PMS5003;50156;37.772;-122.432;2022-10-20T05:19:25;16;15;
63969;PMS5003;50156;37.772;-122.432;2022-10-20T05:21:53;20;19;
63969;PMS5003;50156;37.772;-122.432;2022-10-20T05:24:22;22;19;
63969;PMS5003;50156;37.772;-122.432;2022-10-20T05:26:52;25;23;
63969;PMS5003;50156;37.772;-122.432;2022-10-20T05:29:20;21;18;
63969;PMS5003;50156;37.772;-122.432;2022-10-20T05:31:50;29;23;
63969;PMS5003;50156;37.772;-122.432;2022-10-20T05:34:18;19;16;
63969;PMS5003;50156;37.772;-122.432;2022-10-20T05:36:47;21;20;
63969;PMS5003;50156;37.772;-122.432;2022-10-20T05:39:18;20;20;
63969;PMS5003;50156;37.772;-122.432;2022-10-20T05:41:46;21;17;
63969;PMS5003;50156;37.772;-122.432;2022-10-20T05:44:15;15;15;
63969;PMS5003;50156;37.772;-122.432;2022-10-20T05:46:44;18;16;
63969;PMS5003;50156;37.772;-122.432;2022-10-20T05:49:13;14;14;
63969;PMS5003;50156;37.772;-122.432;2022-10-20T05:51:44;17;17;
63969;PMS5003;50156;37.772;-122.432;2022-10-20T05:54:13;15;15;
63969;PMS5003;50156;37.772;-122.432;2022-10-20T05:56:43;16;15;
63969;PMS5003;50156;37.772;-122.432;2022-10-20T05:59:12;17;15;
63969;PMS5003;50156;37.772;-122.432;2022-10-20T06:01:40;17;16;
63969;PMS5003;50156;37.772;-122.432;2022-10-20T06:04:09;19;17;
63969;PMS5003;50156;37.772;-122.432;2022-10-20T06:06:38;19;17;
63969;PMS5003;50156;37.772;-122.432;2022-10-20T06:09:07;21;17;
63969;PMS5003;50156;37.772;-122.432;2022-10-20T06:11:37;21;21;
63969;PMS5003;50156;37.772;-122.432;2022-10-20T06:14:07;22;22;
63969;PMS5003;50156;37.772;-122.432;2022-10-20T06:16:37;21;19;
63969;PMS5003;50156;37.772;-122.432;2022-10-20T06:19:06;22;18;
63969;PMS5003;50156;37.772;-122.432;2022-10-20T06:21:35;22;21;
63969;PMS5003;50156;37.772;-122.432;2022-10-20T06:24:05;19;19;
63969;PMS5003;50156;37.772;-122.432;2022-10-20T06:26:34;21;17;
63969;PMS5003;50156;37.772;-122.432;2022-10-20T06:29:04;22;19;
63969;PMS5003;50156;37.772;-122.432;2022-10-20T06:31:35;19;19;
63969;PMS5003;50156;37.772;-122.432;2022-10-20T06:34:05;19;18;
63969;PMS5003;50156;37.772;-122.432;2022-10-20T06:36:36;21;21;
63969;PMS5003;50156;37.772;-122.432;2022-10-20T06:39:07;18;16;
63969;PMS5003;50156;37.772;-122.432;2022-10-20T06:41:38;18;17;
63969;PMS5003;50156;37.772;-122.432;2022-10-20T06:44:06;16;16;
63969;PMS5003;50156;37.772;-122.432;2022-10-20T06:46:35;17;17;
63969;PMS5003;50156;37.772;-122.432;2022-10-20T06:49:05;14;13;
63969;PMS5003;50156;37.772;-122.432;2022-10-20T06:51:34;17;17;
63969;PMS5003;50156;37.772;-122.432;2022-10-20T06:54:04;17;15;
63969;PMS5003;50156;37.772;-122.432;2022-10-20T06:56:33;19;19;
63969;PMS5003;50156;37.772;-122.432;2022-10-20T06:59:05;18;18;
63969;PMS5003;50156;37.772;-122.432;2022-10-20T07:01:34;16;16;
63969;PMS5003;50156;37.772;-122.432;2022-10-20T07:04:04;18;18;
63969;PMS5003;50156;37.772;-122.432;2022-10-20T07:06:36;21;19;
63969;PMS5003;50156;37.772;-122.432;2022-10-20T07:09:07;18;18;
63969;PMS5003;50156;37.772;-122.432;2022-10-20T07:11:41;19;15;
63969;PMS5003;50156;37.772;-122.432;2022-10-20T07:14:11;11;11;
63969;PMS5003;50156;37.772;-122.432;2022-10-20T07:16:41;22;21;
63969;PMS5003;50156;37.772;-122.432;2022-10-20T07:19:10;14;14;
63969;PMS5003;50156;37.772;-122.432;2022-10-20T07:21:38;16;14;
63969;PMS5003;50156;37.772;-122.432;2022-10-20T07:24:08;16;13;
63969;PMS5003;50156;37.772;-122.432;2022-10-20T07:26:38;16;16;
63969;PMS5003;50156;37.772;-122.432;2022-10-20T07:29:08;20;17;
63969;PMS5003;50156;37.772;-122.432;2022-10-20T07:31:38;21;18;
63969;PMS5003;50156;37.772;-122.432;2022-10-20T07:34:09;19;19;
63969;PMS5003;50156;37.772;-122.432;2022-10-20T07:36:39;17;16;
63969;PMS5003;50156;37.772;-122.432;2022-10-20T07:39:10;19;19;
63969;PMS5003;50156;37.772;-122.432;2022-10-20T07:41:39;23;21;
63969;PMS5003;50156;37.772;-122.432;2022-10-20T07:44:08;19;17;
63969;PMS5003;50156;37.772;-122.432;2022-10-20T07:46:37;18;16;
63969;PMS5003;50156;37.772;-122.432;2022-10-20T07:49:06;23;20;
63969;PMS5003;50156;37.772;-122.432;2022-10-20T07:51:35;21;19;
63969;PMS5003;50156;37.772;-122.432;2022-10-20T07:54:05;19;19;
63969;PMS5003;50156;37.772;-122.432;2022-10-20T07:56:35;23;21;
63969;PMS5003;50156;37.772;-122.432;2022-10-20T07:59:06;19;18;
63969;PMS5003;50156;37.772;-122.432;2022-10-20T08:01:36;19;18;
63969;PMS5003;50156;37.772;-122.432;2022-10-20T08:04:05;18;17;
63969;PMS5003;50156;37.772;-122.432;2022-10-20T08:06:34;20;16;
63969;PMS5003;50156;37.772;-122.432;2022-10-20T08:09:03;18;16;
63969;PMS5003;50156;37.772;-122.432;2022-10-20T08:11:34;20;18;
63969;PMS5003;50156;37.772;-122.432;2022-10-20T08:14:03;17;16;
63969;PMS5003;50156;37.772;-122.432;2022-10-20T08:16:32;17;16;
63969;PMS5003;50156;37.772;-122.432;2022-10-20T08:19:01;13;13;
63969;PMS5003;50156;37.772;-122.432;2022-10-20T08:21:30;18;18;
63969;PMS5003;50156;37.772;-122.432;2022-10-20T08:23:58;18;18;
63969;PMS5003;50156;37.772;-122.432;2022-10-20T08:26:27;22;20;
63969;PMS5003;50156;37.772;-122.432;2022-10-20T08:28:55;17;15;
63969;PMS5003;50156;37.772;-122.432;2022-10-20T08:31:24;18;15;
63969;PMS5003;50156;37.772;-122.432;2022-10-20T08:33:53;21;19;
63969;PMS5003;50156;37.772;-122.432;2022-10-20T08:36:22;21;20;
63969;PMS5003;50156;37.772;-122.432;2022-10-20T08:38:51;18;18;
63969;PMS5003;50156;37.772;-122.432;2022-10-20T08:41:21;19;19;
63969;PMS5003;50156;37.772;-122.432;2022-10-20T08:43:53;16;15;
63969;PMS5003;50156;37.772;-122.432;2022-10-20T08:46:24;16;14;
63969;PMS5003;50156;37.772;-122.432;2022-10-20T08:48:57;17;16;
63969;PMS5003;50156;37.772;-122.432;2022-10-20T08:51:27;14;13;
63969;PMS5003;50156;37.772;-122.432;2022-10-20T08:54:00;17;14;
63969;PMS5003;50156;37.772;-122.432;2022-10-20T08:56:29;11;10;
63969;PMS5003;50156;37.772;-122.432;2022-10-20T08:59:01;18;15;
63969;PMS5003;50156;37.772;-122.432;2022-10-20T09:01:32;18;17;
63969;PMS5003;50156;37.772;-122.432;2022-10-20T09:04:03;14;12;
63969;PMS5003;50156;37.772;-122.432;2022-10-20T09:06:37;17;14;
63969;PMS5003;50156;37.772;-122.432;2022-10-20T09:09:11;13;12;
63969;PMS5003;50156;37.772;-122.432;2022-10-20T09:11:44;18;15;
63969;PMS5003;50156;37.772;-122.432;2022-10-20T09:14:13;16;15;
63969;PMS5003;50156;37.772;-122.432;2022-10-20T09:16:43;16;13;
63969;PMS5003;50156;37.772;-122.432;2022-10-20T09:19:14;19;17;
63969;PMS5003;50156;37.772;-122.432;2022-10-20T09:21:45;15;14;
63969;PMS5003;50156;37.772;-122.432;2022-10-20T09:24:17;14;14;
63969;PMS5003;50156;37.772;-122.432;2022-10-20T09:26:49;16;16;
63969;PMS5003;50156;37.772;-122.432;2022-10-20T09:29:19;20;18;
63969;PMS5003;50156;37.772;-122.432;2022-10-20T09:31:50;17;14;
63969;PMS5003;50156;37.772;-122.432;2022-10-20T09:34:21;16;15;
63969;PMS5003;50156;37.772;-122.432;2022-10-20T09:36:52;18;18;
63969;PMS5003;50156;37.772;-122.432;2022-10-20T09:39:26;17;15;
63969;PMS5003;50156;37.772;-122.432;2022-10-20T09:41:59;17;16;
63969;PMS5003;50156;37.772;-122.432;2022-10-20T09:44:31;17;17;
63969;PMS5003;50156;37.772;-122.432;2022-10-20T09:47:11;17;15;
63969;PMS5003;50156;37.772;-122.432;2022-10-20T09:49:42;16;16;
63969;PMS5003;50156;37.772;-122.432;2022-10-20T09:52:15;17;15;
63969;PMS5003;50156;37.772;-122.432;2022-10-20T09:54:49;25;19;
63969;PMS5003;50156;37.772;-122.432;2022-10-20T09:57:21;18;18;
63969;PMS5003;50156;37.772;-122.432;2022-10-20T09:59:52;20;20;
63969;PMS5003;50156;37.772;-122.432;2022-10-20T10:02:30;27;23;
63969;PMS5003;50156;37.772;-122.432;2022-10-20T10:05:16;19;19;
63969;PMS5003;50156;37.772;-122.432;2022-10-20T10:07:55;29;26;
63969;PMS5003;50156;37.772;-122.432;2022-10-20T10:10:26;23;23;
63969;PMS5003;50156;37.772;-122.432;2022-10-20T10:12:56;22;18;
63969;PMS5003;50156;37.772;-122.432;2022-10-20T10:15:27;29;25;
63969;PMS5003;50156;37.772;-122.432;2022-10-20T10:17:58;23;20;
63969;PMS5003;50156;37.772;-122.432;2022-10-20T10:20:37;26;24;
63969;PMS5003;50156;37.772;-122.432;2022-10-20T10:23:08;27;24;
63969;PMS5003;50156;37.772;-122.432;2022-10-20T10:25:46;22;22;
63969;PMS5003;50156;37.772;-122.432;2022-10-20T10:28:21;34;28;
63969;PMS5003;50156;37.772;-122.432;2022-10-20T10:31:28;26;24;
63969;PMS5003;50156;37.772;-122.432;2022-10-20T10:34:04;27;24;
63969;PMS5003;50156;37.772;-122.432;2022-10-20T10:36:53;31;29;
63969;PMS5003;50156;37.772;-122.432;2022-10-20T10:39:22;35;28;
63969;PMS5003;50156;37.772;-122.432;2022-10-20T10:41:54;22;22;
63969;PMS5003;50156;37.772;-122.432;2022-10-20T10:44:37;31;25;
63969;PMS5003;50156;37.772;-122.432;2022-10-20T10:47:21;28;26;
63969;PMS5003;50156;37.772;-122.432;2022-10-20T10:50:04;28;26;
63969;PMS5003;50156;37.772;-122.432;2022-10-20T10:52:53;31;27;
63969;PMS5003;50156;37.772;-122.432;2022-10-20T10:55:32;32;29;
63969;PMS5003;50156;37.772;-122.432;2022-10-20T10:58:09;42;35;
63969;PMS5003;50156;37.772;-122.432;2022-10-20T11:00:48;43;39;
63969;PMS5003;50156;37.772;-122.432;2022-10-20T11:03:29;36;33;
63969;PMS5003;50156;37.772;-122.432;2022-10-20T11:06:11;33;30;
63969;PMS5003;50156;37.772;-122.432;2022-10-20T11:08:51;32;29;
63969;PMS5003;50156;37.772;-122.432;2022-10-20T11:11:42;35;30;
63969;PMS5003;50156;37.772;-122.432;2022-10-20T11:14:27;46;39;
63969;PMS5003;50156;37.772;-122.432;2022-10-20T11:17:10;40;39;
63969;PMS5003;50156;37.772;-122.432;2022-10-20T11:20:09;43;38;
63969;PMS5003;50156;37.772;-122.432;2022-10-20T11:23:07;37;35;
63969;PMS5003;50156;37.772;-122.432;2022-10-20T11:26:13;39;35;
63969;PMS5003;50156;37.772;-122.432;2022-10-20T11:28:49;47;41;
63969;PMS5003;50156;37.772;-122.432;2022-10-20T11:31:24;39;35;
63969;PMS5003;50156;37.772;-122.432;2022-10-20T11:34:00;34;32;
63969;PMS5003;50156;37.772;-122.432;2022-10-20T11:36:34;44;38;
63969;PMS5003;50156;37.772;-122.432;2022-10-20T11:39:10;33;32;
63969;PMS5003;50156;37.772;-122.432;2022-10-20T11:41:50;35;31;
63969;PMS5003;50156;37.772;-122.432;2022-10-20T11:44:23;35;34;
63969;PMS5003;50156;37.772;-122.432;2022-10-20T11:46:59;30;28;
63969;PMS5003;50156;37.772;-122.432;2022-10-20T11:49:31;34;27;
63969;PMS5003;50156;37.772;-122.432;2022-10-20T11:52:12;32;30;
63969;PMS5003;50156;37.772;-122.432;2022-10-20T11:55:11;40;34;
63969;PMS5003;50156;37.772;-122.432;2022-10-20T11:57:55;35;31;
63969;PMS5003;50156;37.772;-122.432;2022-10-20T12:00:50;39;35;
63969;PMS5003;50156;37.772;-122.432;2022-10-20T12:04:36;35;33;
63969;PMS5003;50156;37.772;-122.432;2022-10-20T12:07:25;43;39;
63969;PMS5003;50156;37.772;-122.432;2022-10-20T12:10:24;35;30;
63969;PMS5003;50156;37.772;-122.432;2022-10-20T12:13:06;28;26;
63969;PMS5003;50156;37.772;-122.432;2022-10-20T12:15:52;33;29;
63969;PMS5003;50156;37.772;-122.432;2022-10-20T12:18:23;31;31;
63969;PMS5003;50156;37.772;-122.432;2022-10-20T12:20:55;27;27;
63969;PMS5003;50156;37.772;-122.432;2022-10-20T12:23:58;35;30;
63969;PMS5003;50156;37.772;-122.432;2022-10-20T12:27:20;31;28;
63969;PMS5003;50156;37.772;-122.432;2022-10-20T12:29:53;38;37;
63969;PMS5003;50156;37.772;-122.432;2022-10-20T12:32:35;42;33;
63969;PMS5003;50156;37.772;-122.432;2022-10-20T12:32:52;43;36;
63969;PMS5003;50156;37.772;-122.432;2022-10-20T12:36:31;37;32;
63969;PMS5003;50156;37.772;-122.432;2022-10-20T12:39:08;35;34;
63969;PMS5003;50156;37.772;-122.432;2022-10-20T12:41:54;30;30;
63969;PMS5003;50156;37.772;-122.432;2022-10-20T12:44:27;31;30;
63969;PMS5003;50156;37.772;-122.432;2022-10-20T12:46:58;35;31;
63969;PMS5003;50156;37.772;-122.432;2022-10-20T12:49:33;36;27;
63969;PMS5003;50156;37.772;-122.432;2022-10-20T12:52:05;29;28;
63969;PMS5003;50156;37.772;-122.432;2022-10-20T12:54:42;33;29;
63969;PMS5003;50156;37.772;-122.432;2022-10-20T12:57:24;34;30;
63969;PMS5003;50156;37.772;-122.432;2022-10-20T12:59:57;34;29;
63969;PMS5003;50156;37.772;-122.432;2022-10-20T13:02:29;30;29;
63969;PMS5003;50156;37.772;-122.432;2022-10-20T13:04:59;36;32;
63969;PMS5003;50156;37.772;-122.432;2022-10-20T13:10:23;32;30;
63969;PMS5003;50156;37.772;-122.432;2022-10-20T13:13:28;32;31;
63969;PMS5003;50156;37.772;-122.432;2022-10-20T13:16:14;35;32;
63969;PMS5003;50156;37.772;-122.432;2022-10-20T13:18:46;36;32;
63969;PMS5003;50156;37.772;-122.432;2022-10-20T13:21:19;29;29;
63969;PMS5003;50156;37.772;-122.432;2022-10-20T13:23:57;38;29;
63969;PMS5003;50156;37.772;-122.432;2022-10-20T13:26:34;27;26;
63969;PMS5003;50156;37.772;-122.432;2022-10-20T13:29:10;30;27;
63969;PMS5003;50156;37.772;-122.432;2022-10-20T13:31:44;31;28;
63969;PMS5003;50156;37.772;-122.432;2022-10-20T13:34:20;36;32;
63969;PMS5003;50156;37.772;-122.432;2022-10-20T13:37:02;39;33;
63969;PMS5003;50156;37.772;-122.432;2022-10-20T13:39:42;34;31;
63969;PMS5003;50156;37.772;-122.432;2022-10-20T13:42:23;32;28;
63969;PMS5003;50156;37.772;-122.432;2022-10-20T13:45:05;34;31;
63969;PMS5003;50156;37.772;-122.432;2022-10-20T13:47:46;32;28;
63969;PMS5003;50156;37.772;-122.432;2022-10-20T13:50:20;27;23;
63969;PMS5003;50156;37.772;-122.432;2022-10-20T13:52:54;34;27;
63969;PMS5003;50156;37.772;-122.432;2022-10-20T13:55:26;28;28;
63969;PMS5003;50156;37.772;-122.432;2022-10-20T13:57:57;31;29;
63969;PMS5003;50156;37.772;-122.432;2022-10-20T14:00:31;37;27;
63969;PMS5003;50156;37.772;-122.432;2022-10-20T14:03:02;34;28;
63969;PMS5003;50156;37.772;-122.432;2022-10-20T14:05:41;31;29;
63969;PMS5003;50156;37.772;-122.432;2022-10-20T14:08:13;34;32;
63969;PMS5003;50156;37.772;-122.432;2022-10-20T14:10:44;28;25;
63969;PMS5003;50156;37.772;-122.432;2022-10-20T14:13:18;27;24;
63969;PMS5003;50156;37.772;-122.432;2022-10-20T14:15:50;30;30;
63969;PMS5003;50156;37.772;-122.432;2022-10-20T14:18:21;24;24;
63969;PMS5003;50156;37.772;-122.432;2022-10-20T14:20:55;27;24;
63969;PMS5003;50156;37.772;-122.432;2022-10-20T14:23:26;26;24;
63969;PMS5003;50156;37.772;-122.432;2022-10-20T14:26:00;24;23;
63969;PMS5003;50156;37.772;-122.432;2022-10-20T14:28:31;36;32;
63969;PMS5003;50156;37.772;-122.432;2022-10-20T14:31:01;30;27;
63969;PMS5003;50156;37.772;-122.432;2022-10-20T14:33:30;32;30;
63969;PMS5003;50156;37.772;-122.432;2022-10-20T14:36:11;26;23;
63969;PMS5003;50156;37.772;-122.432;2022-10-20T14:38:47;30;28;
63969;PMS5003;50156;37.772;-122.432;2022-10-20T14:41:26;26;25;
63969;PMS5003;50156;37.772;-122.432;2022-10-20T14:43:56;31;29;
63969;PMS5003;50156;37.772;-122.432;2022-10-20T14:46:28;33;29;
63969;PMS5003;50156;37.772;-122.432;2022-10-20T14:49:00;31;31;
63969;PMS5003;50156;37.772;-122.432;2022-10-20T14:51:38;30;27;
63969;PMS5003;50156;37.772;-122.432;2022-10-20T14:54:26;31;28;
63969;PMS5003;50156;37.772;-122.432;2022-10-20T14:56:59;29;24;
63969;PMS5003;50156;37.772;-122.432;2022-10-20T14:59:54;30;26;
63969;PMS5003;50156;37.772;-122.432;2022-10-20T15:02:31;27;22;
63969;PMS5003;50156;37.772;-122.432;2022-10-20T15:05:19;36;25;
63969;PMS5003;50156;37.772;-122.432;2022-10-20T15:07:51;31;27;
63969;PMS5003;50156;37.772;-122.432;2022-10-20T15:10:21;36;33;
63969;PMS5003;50156;37.772;-122.432;2022-10-20T15:12:53;32;30;
63969;PMS5003;50156;37.772;-122.432;2022-10-20T15:15:22;26;24;
63969;PMS5003;50156;37.772;-122.432;2022-10-20T15:18:06;28;22;
63969;PMS5003;50156;37.772;-122.432;2022-10-20T15:20:40;34;30;
63969;PMS5003;50156;37.772;-122.432;2022-10-20T15:23:11;31;31;
63969;PMS5003;50156;37.772;-122.432;2022-10-20T15:25:46;31;28;
63969;PMS5003;50156;37.772;-122.432;2022-10-20T15:28:22;27;26;
63969;PMS5003;50156;37.772;-122.432;2022-10-20T15:30:56;31;26;
63969;PMS5003;50156;37.772;-122.432;2022-10-20T15:33:26;36;32;
63969;PMS5003;50156;37.772;-122.432;2022-10-20T15:35:55;26;23;
63969;PMS5003;50156;37.772;-122.432;2022-10-20T15:38:23;29;27;
63969;PMS5003;50156;37.772;-122.432;2022-10-20T15:40:52;28;27;
63969;PMS5003;50156;37.772;-122.432;2022-10-20T15:43:21;28;28;
63969;PMS5003;50156;37.772;-122.432;2022-10-20T15:45:51;32;30;
63969;PMS5003;50156;37.772;-122.432;2022-10-20T15:48:20;30;28;
63969;PMS5003;50156;37.772;-122.432;2022-10-20T15:50:49;36;31;
63969;PMS5003;50156;37.772;-122.432;2022-10-20T15:53:18;29;26;
63969;PMS5003;50156;37.772;-122.432;2022-10-20T15:55:47;29;26;
63969;PMS5003;50156;37.772;-122.432;2022-10-20T15:58:16;29;29;
63969;PMS5003;50156;37.772;-122.432;2022-10-20T16:00:44;35;30;
63969;PMS5003;50156;37.772;-122.432;2022-10-20T16:03:14;32;32;
63969;PMS5003;50156;37.772;-122.432;2022-10-20T16:05:44;29;29;
63969;PMS5003;50156;37.772;-122.432;2022-10-20T16:08:13;31;29;
63969;PMS5003;50156;37.772;-122.432;2022-10-20T16:10:43;28;26;
63969;PMS5003;50156;37.772;-122.432;2022-10-20T16:13:11;34;29;